sensor_id;sensor_type;location;lat;lon;timestamp;P1;durP1;ratioP1;P2;durP2;ratioP2
62933;SDS011;49038;47.600;19.242;2022-10-19T00:01:24;8.88;;;5.93;;
62933;SDS011;49038;47.600;19.242;2022-10-19T00:04:27;8.15;;;4.95;;
62933;SDS011;49038;47.600;19.242;2022-10-19T00:07:29;8.82;;;5.47;;
62933;SDS011;49038;47.600;19.242;2022-10-19T00:10:32;8.52;;;5.40;;
62933;SDS011;49038;47.600;19.242;2022-10-19T00:13:35;7.87;;;5.37;;
62933;SDS011;49038;47.600;19.242;2022-10-19T00:16:37;9.88;;;6.10;;
62933;SDS011;49038;47.600;19.242;2022-10-19T00:19:39;10.57;;;6.93;;
62933;SDS011;49038;47.600;19.242;2022-10-19T00:22:42;16.37;;;6.93;;
62933;SDS011;49038;47.600;19.242;2022-10-19T00:25:53;15.00;;;7.18;;
62933;SDS011;49038;47.600;19.242;2022-10-19T00:28:56;16.77;;;7.57;;
62933;SDS011;49038;47.600;19.242;2022-10-19T00:31:59;12.50;;;6.72;;
62933;SDS011;49038;47.600;19.242;2022-10-19T00:35:01;9.75;;;6.28;;
62933;SDS011;49038;47.600;19.242;2022-10-19T00:38:04;13.13;;;6.75;;
62933;SDS011;49038;47.600;19.242;2022-10-19T00:41:06;14.02;;;6.85;;
62933;SDS011;49038;47.600;19.242;2022-10-19T00:47:14;9.63;;;6.10;;
62933;SDS011;49038;47.600;19.242;2022-10-19T00:50:17;8.98;;;5.72;;
62933;SDS011;49038;47.600;19.242;2022-10-19T00:53:19;9.55;;;6.10;;
62933;SDS011;49038;47.600;19.242;2022-10-19T00:56:22;9.55;;;5.75;;
62933;SDS011;49038;47.600;19.242;2022-10-19T00:59:24;10.25;;;6.28;;
62933;SDS011;49038;47.600;19.242;2022-10-19T01:02:27;8.60;;;5.87;;
62933;SDS011;49038;47.600;19.242;2022-10-19T01:05:30;15.55;;;6.18;;
62933;SDS011;49038;47.600;19.242;2022-10-19T01:08:33;8.45;;;5.72;;
62933;SDS011;49038;47.600;19.242;2022-10-19T01:18:30;11.12;;;5.62;;
62933;SDS011;49038;47.600;19.242;2022-10-19T01:21:43;10.13;;;5.93;;
62933;SDS011;49038;47.600;19.242;2022-10-19T01:34:46;8.35;;;5.25;;
62933;SDS011;49038;47.600;19.242;2022-10-19T01:44:35;9.98;;;5.75;;
62933;SDS011;49038;47.600;19.242;2022-10-19T01:47:54;10.43;;;5.47;;
62933;SDS011;49038;47.600;19.242;2022-10-19T01:51:08;7.45;;;5.45;;
62933;SDS011;49038;47.600;19.242;2022-10-19T01:54:13;7.47;;;5.22;;
62933;SDS011;49038;47.600;19.242;2022-10-19T01:57:19;9.57;;;5.37;;
62933;SDS011;49038;47.600;19.242;2022-10-19T02:00:24;6.90;;;5.00;;
62933;SDS011;49038;47.600;19.242;2022-10-19T02:03:27;9.05;;;5.20;;
62933;SDS011;49038;47.600;19.242;2022-10-19T02:06:30;8.35;;;4.47;;
62933;SDS011;49038;47.600;19.242;2022-10-19T02:09:32;7.62;;;4.78;;
62933;SDS011;49038;47.600;19.242;2022-10-19T02:12:34;9.15;;;5.65;;
62933;SDS011;49038;47.600;19.242;2022-10-19T02:15:38;7.82;;;5.05;;
62933;SDS011;49038;47.600;19.242;2022-10-19T02:18:44;9.25;;;5.22;;
62933;SDS011;49038;47.600;19.242;2022-10-19T02:21:47;10.23;;;5.82;;
62933;SDS011;49038;47.600;19.242;2022-10-19T02:24:49;12.40;;;6.05;;
62933;SDS011;49038;47.600;19.242;2022-10-19T02:27:51;7.10;;;4.37;;
62933;SDS011;49038;47.600;19.242;2022-10-19T02:30:54;7.70;;;4.75;;
62933;SDS011;49038;47.600;19.242;2022-10-19T02:33:56;9.10;;;5.30;;
62933;SDS011;49038;47.600;19.242;2022-10-19T02:36:59;7.32;;;5.07;;
62933;SDS011;49038;47.600;19.242;2022-10-19T02:40:01;9.10;;;5.35;;
62933;SDS011;49038;47.600;19.242;2022-10-19T02:43:05;9.93;;;5.82;;
62933;SDS011;49038;47.600;19.242;2022-10-19T02:46:34;5.90;;;4.87;;
62933;SDS011;49038;47.600;19.242;2022-10-19T02:49:38;11.77;;;5.72;;
62933;SDS011;49038;47.600;19.242;2022-10-19T02:52:41;6.47;;;4.65;;
62933;SDS011;49038;47.600;19.242;2022-10-19T02:55:44;6.55;;;4.78;;
62933;SDS011;49038;47.600;19.242;2022-10-19T02:58:48;7.78;;;5.10;;
62933;SDS011;49038;47.600;19.242;2022-10-19T03:01:51;11.80;;;5.62;;
62933;SDS011;49038;47.600;19.242;2022-10-19T03:04:53;9.82;;;4.85;;
62933;SDS011;49038;47.600;19.242;2022-10-19T03:07:55;12.73;;;5.87;;
62933;SDS011;49038;47.600;19.242;2022-10-19T03:10:57;10.70;;;5.60;;
62933;SDS011;49038;47.600;19.242;2022-10-19T03:14:00;11.57;;;5.50;;
62933;SDS011;49038;47.600;19.242;2022-10-19T03:17:02;8.98;;;5.03;;
62933;SDS011;49038;47.600;19.242;2022-10-19T03:20:05;10.52;;;5.57;;
62933;SDS011;49038;47.600;19.242;2022-10-19T03:23:07;8.50;;;5.62;;
62933;SDS011;49038;47.600;19.242;2022-10-19T03:26:11;7.22;;;4.97;;
62933;SDS011;49038;47.600;19.242;2022-10-19T03:29:15;13.23;;;6.00;;
62933;SDS011;49038;47.600;19.242;2022-10-19T03:32:17;8.45;;;5.35;;
62933;SDS011;49038;47.600;19.242;2022-10-19T03:35:19;16.60;;;5.85;;
62933;SDS011;49038;47.600;19.242;2022-10-19T03:38:21;9.63;;;5.78;;
62933;SDS011;49038;47.600;19.242;2022-10-19T03:41:24;9.23;;;5.57;;
62933;SDS011;49038;47.600;19.242;2022-10-19T03:44:28;11.95;;;6.05;;
62933;SDS011;49038;47.600;19.242;2022-10-19T03:47:30;10.68;;;5.93;;
62933;SDS011;49038;47.600;19.242;2022-10-19T03:50:33;11.18;;;6.35;;
62933;SDS011;49038;47.600;19.242;2022-10-19T03:53:35;9.02;;;6.25;;
62933;SDS011;49038;47.600;19.242;2022-10-19T03:56:38;8.45;;;5.47;;
62933;SDS011;49038;47.600;19.242;2022-10-19T03:59:40;11.70;;;6.30;;
62933;SDS011;49038;47.600;19.242;2022-10-19T04:02:42;14.30;;;6.05;;
62933;SDS011;49038;47.600;19.242;2022-10-19T04:05:44;8.75;;;5.50;;
62933;SDS011;49038;47.600;19.242;2022-10-19T04:08:47;11.88;;;6.07;;
62933;SDS011;49038;47.600;19.242;2022-10-19T04:11:49;10.38;;;5.53;;
62933;SDS011;49038;47.600;19.242;2022-10-19T04:14:52;11.93;;;6.78;;
62933;SDS011;49038;47.600;19.242;2022-10-19T04:17:58;11.95;;;6.50;;
62933;SDS011;49038;47.600;19.242;2022-10-19T04:21:01;12.88;;;5.95;;
62933;SDS011;49038;47.600;19.242;2022-10-19T04:24:15;13.80;;;6.78;;
62933;SDS011;49038;47.600;19.242;2022-10-19T04:27:18;11.60;;;6.82;;
62933;SDS011;49038;47.600;19.242;2022-10-19T04:30:20;12.77;;;5.57;;
62933;SDS011;49038;47.600;19.242;2022-10-19T04:33:22;11.90;;;6.28;;
62933;SDS011;49038;47.600;19.242;2022-10-19T04:36:24;9.18;;;5.55;;
62933;SDS011;49038;47.600;19.242;2022-10-19T04:39:27;13.88;;;6.37;;
62933;SDS011;49038;47.600;19.242;2022-10-19T04:42:29;12.15;;;6.53;;
62933;SDS011;49038;47.600;19.242;2022-10-19T04:45:33;10.48;;;6.85;;
62933;SDS011;49038;47.600;19.242;2022-10-19T04:48:36;12.50;;;6.45;;
62933;SDS011;49038;47.600;19.242;2022-10-19T04:51:39;8.68;;;5.55;;
62933;SDS011;49038;47.600;19.242;2022-10-19T04:54:41;8.20;;;5.15;;
62933;SDS011;49038;47.600;19.242;2022-10-19T04:57:43;14.25;;;7.10;;
62933;SDS011;49038;47.600;19.242;2022-10-19T05:00:45;15.60;;;6.53;;
62933;SDS011;49038;47.600;19.242;2022-10-19T05:03:51;12.05;;;6.57;;
62933;SDS011;49038;47.600;19.242;2022-10-19T05:07:02;15.15;;;5.97;;
62933;SDS011;49038;47.600;19.242;2022-10-19T05:10:06;9.98;;;5.82;;
62933;SDS011;49038;47.600;19.242;2022-10-19T05:13:09;11.68;;;6.03;;
62933;SDS011;49038;47.600;19.242;2022-10-19T05:16:15;13.68;;;5.97;;
62933;SDS011;49038;47.600;19.242;2022-10-19T05:19:19;11.73;;;6.00;;
62933;SDS011;49038;47.600;19.242;2022-10-19T05:22:22;11.60;;;6.80;;
62933;SDS011;49038;47.600;19.242;2022-10-19T05:25:24;14.27;;;7.05;;
62933;SDS011;49038;47.600;19.242;2022-10-19T05:28:26;9.48;;;5.47;;
62933;SDS011;49038;47.600;19.242;2022-10-19T05:31:30;10.43;;;6.97;;
62933;SDS011;49038;47.600;19.242;2022-10-19T05:34:33;10.50;;;5.82;;
62933;SDS011;49038;47.600;19.242;2022-10-19T05:37:35;11.88;;;6.43;;
62933;SDS011;49038;47.600;19.242;2022-10-19T05:40:43;11.23;;;6.15;;
62933;SDS011;49038;47.600;19.242;2022-10-19T05:43:46;14.23;;;7.10;;
62933;SDS011;49038;47.600;19.242;2022-10-19T05:46:49;7.93;;;5.40;;
62933;SDS011;49038;47.600;19.242;2022-10-19T05:49:52;9.60;;;5.85;;
62933;SDS011;49038;47.600;19.242;2022-10-19T05:52:54;13.38;;;6.93;;
62933;SDS011;49038;47.600;19.242;2022-10-19T05:55:56;14.00;;;6.30;;
62933;SDS011;49038;47.600;19.242;2022-10-19T05:58:59;9.30;;;5.47;;
62933;SDS011;49038;47.600;19.242;2022-10-19T06:02:02;8.57;;;5.75;;
62933;SDS011;49038;47.600;19.242;2022-10-19T06:05:05;13.32;;;6.93;;
62933;SDS011;49038;47.600;19.242;2022-10-19T06:08:07;13.65;;;7.20;;
62933;SDS011;49038;47.600;19.242;2022-10-19T06:11:11;8.75;;;6.15;;
62933;SDS011;49038;47.600;19.242;2022-10-19T06:14:15;9.32;;;5.90;;
62933;SDS011;49038;47.600;19.242;2022-10-19T06:17:17;9.48;;;5.65;;
62933;SDS011;49038;47.600;19.242;2022-10-19T06:20:19;14.27;;;5.68;;
62933;SDS011;49038;47.600;19.242;2022-10-19T06:23:21;18.30;;;7.55;;
62933;SDS011;49038;47.600;19.242;2022-10-19T06:26:24;9.10;;;5.75;;
62933;SDS011;49038;47.600;19.242;2022-10-19T06:29:27;7.57;;;4.70;;
62933;SDS011;49038;47.600;19.242;2022-10-19T06:32:29;8.07;;;4.85;;
62933;SDS011;49038;47.600;19.242;2022-10-19T06:35:31;7.78;;;4.80;;
62933;SDS011;49038;47.600;19.242;2022-10-19T06:38:33;6.93;;;4.62;;
62933;SDS011;49038;47.600;19.242;2022-10-19T06:41:36;5.32;;;3.62;;
62933;SDS011;49038;47.600;19.242;2022-10-19T06:44:38;8.43;;;3.85;;
62933;SDS011;49038;47.600;19.242;2022-10-19T06:47:40;8.77;;;5.47;;
62933;SDS011;49038;47.600;19.242;2022-10-19T06:50:42;6.37;;;4.53;;
62933;SDS011;49038;47.600;19.242;2022-10-19T06:53:44;7.20;;;4.53;;
62933;SDS011;49038;47.600;19.242;2022-10-19T06:56:46;6.20;;;4.30;;
62933;SDS011;49038;47.600;19.242;2022-10-19T06:59:54;6.28;;;4.18;;
62933;SDS011;49038;47.600;19.242;2022-10-19T07:02:57;9.38;;;4.40;;
62933;SDS011;49038;47.600;19.242;2022-10-19T07:06:00;8.88;;;4.60;;
62933;SDS011;49038;47.600;19.242;2022-10-19T07:09:04;6.70;;;4.07;;
62933;SDS011;49038;47.600;19.242;2022-10-19T07:12:06;6.90;;;3.95;;
62933;SDS011;49038;47.600;19.242;2022-10-19T07:15:11;5.93;;;4.10;;
62933;SDS011;49038;47.600;19.242;2022-10-19T07:18:13;8.82;;;4.05;;
62933;SDS011;49038;47.600;19.242;2022-10-19T07:21:16;14.27;;;4.60;;
62933;SDS011;49038;47.600;19.242;2022-10-19T07:24:18;5.40;;;3.47;;
62933;SDS011;49038;47.600;19.242;2022-10-19T07:27:21;6.40;;;3.92;;
62933;SDS011;49038;47.600;19.242;2022-10-19T07:30:23;6.25;;;3.75;;
62933;SDS011;49038;47.600;19.242;2022-10-19T07:33:25;4.68;;;3.58;;
62933;SDS011;49038;47.600;19.242;2022-10-19T07:36:28;7.15;;;3.72;;
62933;SDS011;49038;47.600;19.242;2022-10-19T07:39:32;4.68;;;3.65;;
62933;SDS011;49038;47.600;19.242;2022-10-19T07:42:34;5.70;;;3.10;;
62933;SDS011;49038;47.600;19.242;2022-10-19T07:45:38;6.12;;;3.22;;
62933;SDS011;49038;47.600;19.242;2022-10-19T07:48:40;14.43;;;3.62;;
62933;SDS011;49038;47.600;19.242;2022-10-19T07:51:43;4.95;;;3.28;;
62933;SDS011;49038;47.600;19.242;2022-10-19T07:54:46;4.55;;;3.33;;
62933;SDS011;49038;47.600;19.242;2022-10-19T07:57:50;3.95;;;2.85;;
62933;SDS011;49038;47.600;19.242;2022-10-19T08:00:57;4.05;;;2.83;;
62933;SDS011;49038;47.600;19.242;2022-10-19T08:04:01;4.05;;;3.10;;
62933;SDS011;49038;47.600;19.242;2022-10-19T08:07:23;5.85;;;3.10;;
62933;SDS011;49038;47.600;19.242;2022-10-19T08:10:25;4.90;;;3.20;;
62933;SDS011;49038;47.600;19.242;2022-10-19T08:13:27;3.70;;;2.97;;
62933;SDS011;49038;47.600;19.242;2022-10-19T08:16:34;5.28;;;2.85;;
62933;SDS011;49038;47.600;19.242;2022-10-19T08:19:39;3.45;;;2.37;;
62933;SDS011;49038;47.600;19.242;2022-10-19T08:22:44;3.50;;;2.87;;
62933;SDS011;49038;47.600;19.242;2022-10-19T08:25:47;4.28;;;2.95;;
62933;SDS011;49038;47.600;19.242;2022-10-19T08:28:50;4.00;;;3.12;;
62933;SDS011;49038;47.600;19.242;2022-10-19T08:31:52;6.50;;;4.53;;
62933;SDS011;49038;47.600;19.242;2022-10-19T08:34:55;3.92;;;2.65;;
62933;SDS011;49038;47.600;19.242;2022-10-19T08:37:57;3.50;;;2.92;;
62933;SDS011;49038;47.600;19.242;2022-10-19T08:41:03;3.50;;;2.67;;
62933;SDS011;49038;47.600;19.242;2022-10-19T08:47:52;3.42;;;2.50;;
62933;SDS011;49038;47.600;19.242;2022-10-19T08:51:11;5.37;;;2.40;;
62933;SDS011;49038;47.600;19.242;2022-10-19T08:54:15;5.03;;;2.90;;
62933;SDS011;49038;47.600;19.242;2022-10-19T09:00:42;2.25;;;2.03;;
62933;SDS011;49038;47.600;19.242;2022-10-19T09:04:37;3.50;;;2.50;;
62933;SDS011;49038;47.600;19.242;2022-10-19T09:07:35;4.25;;;2.55;;
62933;SDS011;49038;47.600;19.242;2022-10-19T09:10:46;3.42;;;2.33;;
62933;SDS011;49038;47.600;19.242;2022-10-19T09:13:54;4.50;;;2.70;;
62933;SDS011;49038;47.600;19.242;2022-10-19T09:17:09;2.80;;;2.17;;
62933;SDS011;49038;47.600;19.242;2022-10-19T09:23:28;2.87;;;2.30;;
62933;SDS011;49038;47.600;19.242;2022-10-19T09:26:51;2.95;;;2.20;;
62933;SDS011;49038;47.600;19.242;2022-10-19T09:29:59;2.67;;;2.10;;
62933;SDS011;49038;47.600;19.242;2022-10-19T09:33:04;2.72;;;2.03;;
62933;SDS011;49038;47.600;19.242;2022-10-19T09:36:07;3.33;;;2.20;;
62933;SDS011;49038;47.600;19.242;2022-10-19T09:39:24;3.33;;;2.33;;
62933;SDS011;49038;47.600;19.242;2022-10-19T09:42:31;2.83;;;1.98;;
62933;SDS011;49038;47.600;19.242;2022-10-19T09:51:54;2.37;;;1.90;;
62933;SDS011;49038;47.600;19.242;2022-10-19T09:58:15;4.28;;;2.45;;
62933;SDS011;49038;47.600;19.242;2022-10-19T10:01:53;2.90;;;1.80;;
62933;SDS011;49038;47.600;19.242;2022-10-19T10:04:54;3.53;;;1.65;;
62933;SDS011;49038;47.600;19.242;2022-10-19T10:07:58;4.82;;;2.25;;
62933;SDS011;49038;47.600;19.242;2022-10-19T10:17:20;1.92;;;1.50;;
62933;SDS011;49038;47.600;19.242;2022-10-19T10:20:25;2.15;;;1.80;;
62933;SDS011;49038;47.600;19.242;2022-10-19T10:23:30;2.50;;;2.00;;
62933;SDS011;49038;47.600;19.242;2022-10-19T10:26:44;4.55;;;1.95;;
62933;SDS011;49038;47.600;19.242;2022-10-19T10:29:54;2.42;;;1.80;;
62933;SDS011;49038;47.600;19.242;2022-10-19T10:33:01;2.60;;;1.85;;
62933;SDS011;49038;47.600;19.242;2022-10-19T10:36:25;3.72;;;1.80;;
62933;SDS011;49038;47.600;19.242;2022-10-19T10:39:28;3.33;;;2.20;;
62933;SDS011;49038;47.600;19.242;2022-10-19T10:42:33;2.17;;;1.87;;
62933;SDS011;49038;47.600;19.242;2022-10-19T10:45:44;5.35;;;1.73;;
62933;SDS011;49038;47.600;19.242;2022-10-19T10:48:52;4.20;;;1.92;;
62933;SDS011;49038;47.600;19.242;2022-10-19T10:52:00;1.70;;;1.60;;
62933;SDS011;49038;47.600;19.242;2022-10-19T10:58:16;1.92;;;1.50;;
62933;SDS011;49038;47.600;19.242;2022-10-19T11:01:22;2.47;;;1.70;;
62933;SDS011;49038;47.600;19.242;2022-10-19T11:04:27;1.48;;;1.30;;
62933;SDS011;49038;47.600;19.242;2022-10-19T11:07:43;1.15;;;1.05;;
62933;SDS011;49038;47.600;19.242;2022-10-19T11:17:30;1.00;;;0.90;;
62933;SDS011;49038;47.600;19.242;2022-10-19T11:20:34;0.90;;;0.90;;
62933;SDS011;49038;47.600;19.242;2022-10-19T11:30:13;0.90;;;0.80;;
62933;SDS011;49038;47.600;19.242;2022-10-19T11:33:40;1.55;;;0.90;;
62933;SDS011;49038;47.600;19.242;2022-10-19T11:44:08;1.25;;;0.80;;
62933;SDS011;49038;47.600;19.242;2022-10-19T11:50:53;0.73;;;0.73;;
62933;SDS011;49038;47.600;19.242;2022-10-19T11:58:22;1.20;;;0.85;;
62933;SDS011;49038;47.600;19.242;2022-10-19T12:05:10;4.93;;;1.00;;
62933;SDS011;49038;47.600;19.242;2022-10-19T12:14:47;1.58;;;1.00;;
62933;SDS011;49038;47.600;19.242;2022-10-19T12:17:53;2.50;;;0.95;;
62933;SDS011;49038;47.600;19.242;2022-10-19T12:20:59;1.85;;;1.10;;
62933;SDS011;49038;47.600;19.242;2022-10-19T12:24:10;1.25;;;0.95;;
62933;SDS011;49038;47.600;19.242;2022-10-19T12:27:15;1.25;;;0.75;;
62933;SDS011;49038;47.600;19.242;2022-10-19T12:30:20;1.48;;;1.10;;
62933;SDS011;49038;47.600;19.242;2022-10-19T12:33:26;1.23;;;1.08;;
62933;SDS011;49038;47.600;19.242;2022-10-19T12:42:47;1.90;;;1.20;;
62933;SDS011;49038;47.600;19.242;2022-10-19T12:52:41;1.35;;;1.10;;
62933;SDS011;49038;47.600;19.242;2022-10-19T12:55:45;2.12;;;1.20;;
62933;SDS011;49038;47.600;19.242;2022-10-19T12:58:49;1.02;;;0.90;;
62933;SDS011;49038;47.600;19.242;2022-10-19T13:01:53;1.50;;;1.25;;
62933;SDS011;49038;47.600;19.242;2022-10-19T13:04:57;0.93;;;0.90;;
62933;SDS011;49038;47.600;19.242;2022-10-19T13:08:00;1.55;;;1.20;;
62933;SDS011;49038;47.600;19.242;2022-10-19T13:11:07;4.50;;;0.90;;
62933;SDS011;49038;47.600;19.242;2022-10-19T13:23:41;1.20;;;1.10;;
62933;SDS011;49038;47.600;19.242;2022-10-19T13:26:45;1.10;;;1.00;;
62933;SDS011;49038;47.600;19.242;2022-10-19T13:29:47;1.25;;;1.15;;
62933;SDS011;49038;47.600;19.242;2022-10-19T13:32:50;1.40;;;0.90;;
62933;SDS011;49038;47.600;19.242;2022-10-19T13:39:02;1.98;;;1.40;;
62933;SDS011;49038;47.600;19.242;2022-10-19T13:42:20;1.20;;;0.85;;
62933;SDS011;49038;47.600;19.242;2022-10-19T13:45:24;1.33;;;1.02;;
62933;SDS011;49038;47.600;19.242;2022-10-19T13:48:35;3.25;;;1.10;;
62933;SDS011;49038;47.600;19.242;2022-10-19T14:15:25;1.20;;;1.08;;
62933;SDS011;49038;47.600;19.242;2022-10-19T14:18:30;2.35;;;1.25;;
62933;SDS011;49038;47.600;19.242;2022-10-19T14:21:34;2.45;;;2.00;;
62933;SDS011;49038;47.600;19.242;2022-10-19T14:24:37;2.62;;;1.90;;
62933;SDS011;49038;47.600;19.242;2022-10-19T14:27:39;1.70;;;1.40;;
62933;SDS011;49038;47.600;19.242;2022-10-19T14:30:42;1.58;;;1.30;;
62933;SDS011;49038;47.600;19.242;2022-10-19T14:33:45;1.62;;;1.33;;
62933;SDS011;49038;47.600;19.242;2022-10-19T14:36:48;3.83;;;1.40;;
62933;SDS011;49038;47.600;19.242;2022-10-19T14:43:12;2.03;;;1.40;;
62933;SDS011;49038;47.600;19.242;2022-10-19T14:46:23;2.70;;;1.60;;
62933;SDS011;49038;47.600;19.242;2022-10-19T14:49:27;4.10;;;2.03;;
62933;SDS011;49038;47.600;19.242;2022-10-19T14:52:35;3.90;;;1.92;;
62933;SDS011;49038;47.600;19.242;2022-10-19T14:55:38;2.20;;;1.50;;
62933;SDS011;49038;47.600;19.242;2022-10-19T15:02:23;1.65;;;1.40;;
62933;SDS011;49038;47.600;19.242;2022-10-19T15:05:30;2.95;;;1.90;;
62933;SDS011;49038;47.600;19.242;2022-10-19T15:11:39;3.58;;;1.50;;
62933;SDS011;49038;47.600;19.242;2022-10-19T15:14:44;4.15;;;1.60;;
62933;SDS011;49038;47.600;19.242;2022-10-19T15:17:52;2.00;;;1.48;;
62933;SDS011;49038;47.600;19.242;2022-10-19T15:21:03;3.97;;;3.10;;
62933;SDS011;49038;47.600;19.242;2022-10-19T15:24:35;3.92;;;2.10;;
62933;SDS011;49038;47.600;19.242;2022-10-19T15:27:38;2.72;;;2.17;;
62933;SDS011;49038;47.600;19.242;2022-10-19T15:30:57;4.65;;;2.15;;
62933;SDS011;49038;47.600;19.242;2022-10-19T15:34:02;10.63;;;2.23;;
62933;SDS011;49038;47.600;19.242;2022-10-19T15:37:04;3.00;;;1.30;;
62933;SDS011;49038;47.600;19.242;2022-10-19T15:40:12;9.07;;;1.77;;
62933;SDS011;49038;47.600;19.242;2022-10-19T15:46:32;2.97;;;1.83;;
62933;SDS011;49038;47.600;19.242;2022-10-19T15:49:50;4.57;;;2.20;;
62933;SDS011;49038;47.600;19.242;2022-10-19T15:52:57;3.62;;;2.03;;
62933;SDS011;49038;47.600;19.242;2022-10-19T15:56:00;4.72;;;3.05;;
62933;SDS011;49038;47.600;19.242;2022-10-19T15:59:12;9.65;;;4.87;;
62933;SDS011;49038;47.600;19.242;2022-10-19T16:02:16;4.68;;;2.90;;
62933;SDS011;49038;47.600;19.242;2022-10-19T16:05:18;2.25;;;1.95;;
62933;SDS011;49038;47.600;19.242;2022-10-19T16:08:20;5.72;;;3.28;;
62933;SDS011;49038;47.600;19.242;2022-10-19T16:11:22;10.80;;;5.32;;
62933;SDS011;49038;47.600;19.242;2022-10-19T16:14:25;6.10;;;2.67;;
62933;SDS011;49038;47.600;19.242;2022-10-19T16:17:29;4.20;;;2.75;;
62933;SDS011;49038;47.600;19.242;2022-10-19T16:20:31;3.85;;;2.35;;
62933;SDS011;49038;47.600;19.242;2022-10-19T16:23:33;3.17;;;1.80;;
62933;SDS011;49038;47.600;19.242;2022-10-19T16:26:43;4.32;;;2.22;;
62933;SDS011;49038;47.600;19.242;2022-10-19T16:29:45;6.30;;;2.72;;
62933;SDS011;49038;47.600;19.242;2022-10-19T16:32:47;3.78;;;2.30;;
62933;SDS011;49038;47.600;19.242;2022-10-19T16:35:50;3.67;;;2.33;;
62933;SDS011;49038;47.600;19.242;2022-10-19T16:38:52;7.18;;;3.60;;
62933;SDS011;49038;47.600;19.242;2022-10-19T16:41:54;19.55;;;7.57;;
62933;SDS011;49038;47.600;19.242;2022-10-19T16:44:57;18.33;;;9.63;;
62933;SDS011;49038;47.600;19.242;2022-10-19T16:47:59;16.83;;;9.98;;
62933;SDS011;49038;47.600;19.242;2022-10-19T16:54:07;16.80;;;7.28;;
62933;SDS011;49038;47.600;19.242;2022-10-19T16:57:13;6.15;;;4.40;;
62933;SDS011;49038;47.600;19.242;2022-10-19T17:00:15;4.40;;;2.85;;
62933;SDS011;49038;47.600;19.242;2022-10-19T17:03:17;5.80;;;2.70;;
62933;SDS011;49038;47.600;19.242;2022-10-19T17:06:19;6.07;;;3.53;;
62933;SDS011;49038;47.600;19.242;2022-10-19T17:09:23;5.03;;;2.45;;
62933;SDS011;49038;47.600;19.242;2022-10-19T17:12:43;2.42;;;2.05;;
62933;SDS011;49038;47.600;19.242;2022-10-19T17:15:45;2.97;;;1.98;;
62933;SDS011;49038;47.600;19.242;2022-10-19T17:18:48;4.45;;;2.37;;
62933;SDS011;49038;47.600;19.242;2022-10-19T17:21:51;2.75;;;1.90;;
62933;SDS011;49038;47.600;19.242;2022-10-19T17:24:56;5.80;;;3.62;;
62933;SDS011;49038;47.600;19.242;2022-10-19T17:27:58;4.62;;;2.35;;
62933;SDS011;49038;47.600;19.242;2022-10-19T17:31:11;3.05;;;2.00;;
62933;SDS011;49038;47.600;19.242;2022-10-19T17:34:15;2.55;;;2.05;;
62933;SDS011;49038;47.600;19.242;2022-10-19T17:37:19;4.80;;;1.58;;
62933;SDS011;49038;47.600;19.242;2022-10-19T17:40:21;2.70;;;2.08;;
62933;SDS011;49038;47.600;19.242;2022-10-19T17:43:23;2.97;;;2.00;;
62933;SDS011;49038;47.600;19.242;2022-10-19T17:46:28;2.53;;;1.85;;
62933;SDS011;49038;47.600;19.242;2022-10-19T17:49:31;1.92;;;1.70;;
62933;SDS011;49038;47.600;19.242;2022-10-19T17:52:33;2.22;;;2.00;;
62933;SDS011;49038;47.600;19.242;2022-10-19T17:55:36;6.80;;;2.85;;
62933;SDS011;49038;47.600;19.242;2022-10-19T17:58:38;21.30;;;7.53;;
62933;SDS011;49038;47.600;19.242;2022-10-19T18:01:41;15.52;;;7.50;;
62933;SDS011;49038;47.600;19.242;2022-10-19T18:04:43;4.12;;;2.15;;
62933;SDS011;49038;47.600;19.242;2022-10-19T18:07:46;4.87;;;2.22;;
62933;SDS011;49038;47.600;19.242;2022-10-19T18:11:09;3.40;;;1.95;;
62933;SDS011;49038;47.600;19.242;2022-10-19T18:14:13;3.80;;;2.80;;
62933;SDS011;49038;47.600;19.242;2022-10-19T18:17:17;3.37;;;2.17;;
62933;SDS011;49038;47.600;19.242;2022-10-19T18:20:23;2.92;;;2.10;;
62933;SDS011;49038;47.600;19.242;2022-10-19T18:23:26;3.90;;;2.35;;
62933;SDS011;49038;47.600;19.242;2022-10-19T18:26:29;4.43;;;2.42;;
62933;SDS011;49038;47.600;19.242;2022-10-19T18:29:33;4.00;;;2.50;;
62933;SDS011;49038;47.600;19.242;2022-10-19T18:32:36;4.05;;;2.00;;
62933;SDS011;49038;47.600;19.242;2022-10-19T18:35:39;5.60;;;3.10;;
62933;SDS011;49038;47.600;19.242;2022-10-19T18:38:42;10.07;;;3.15;;
62933;SDS011;49038;47.600;19.242;2022-10-19T18:41:45;14.82;;;5.60;;
62933;SDS011;49038;47.600;19.242;2022-10-19T18:44:49;13.73;;;7.50;;
62933;SDS011;49038;47.600;19.242;2022-10-19T18:47:51;8.48;;;5.18;;
62933;SDS011;49038;47.600;19.242;2022-10-19T18:50:55;5.15;;;2.90;;
62933;SDS011;49038;47.600;19.242;2022-10-19T18:53:58;3.53;;;2.20;;
62933;SDS011;49038;47.600;19.242;2022-10-19T18:57:00;2.97;;;2.58;;
62933;SDS011;49038;47.600;19.242;2022-10-19T19:00:03;3.08;;;2.78;;
62933;SDS011;49038;47.600;19.242;2022-10-19T19:03:07;3.60;;;2.20;;
62933;SDS011;49038;47.600;19.242;2022-10-19T19:06:11;3.60;;;1.87;;
62933;SDS011;49038;47.600;19.242;2022-10-19T19:09:13;8.13;;;2.55;;
62933;SDS011;49038;47.600;19.242;2022-10-19T19:12:16;4.00;;;1.85;;
62933;SDS011;49038;47.600;19.242;2022-10-19T19:15:18;3.72;;;2.40;;
62933;SDS011;49038;47.600;19.242;2022-10-19T19:18:21;3.20;;;2.62;;
62933;SDS011;49038;47.600;19.242;2022-10-19T19:21:24;3.67;;;2.70;;
62933;SDS011;49038;47.600;19.242;2022-10-19T19:24:28;14.60;;;4.87;;
62933;SDS011;49038;47.600;19.242;2022-10-19T19:27:33;5.95;;;2.33;;
62933;SDS011;49038;47.600;19.242;2022-10-19T19:30:42;3.28;;;2.00;;
62933;SDS011;49038;47.600;19.242;2022-10-19T19:33:45;3.10;;;2.15;;
62933;SDS011;49038;47.600;19.242;2022-10-19T19:36:48;6.15;;;2.85;;
62933;SDS011;49038;47.600;19.242;2022-10-19T19:39:50;4.43;;;2.85;;
62933;SDS011;49038;47.600;19.242;2022-10-19T19:42:53;4.05;;;2.67;;
62933;SDS011;49038;47.600;19.242;2022-10-19T19:46:00;6.93;;;3.60;;
62933;SDS011;49038;47.600;19.242;2022-10-19T19:49:09;6.22;;;3.60;;
62933;SDS011;49038;47.600;19.242;2022-10-19T19:52:11;10.35;;;5.15;;
62933;SDS011;49038;47.600;19.242;2022-10-19T19:55:14;10.07;;;5.50;;
62933;SDS011;49038;47.600;19.242;2022-10-19T19:58:18;10.95;;;6.47;;
62933;SDS011;49038;47.600;19.242;2022-10-19T20:01:21;19.52;;;7.55;;
62933;SDS011;49038;47.600;19.242;2022-10-19T20:04:23;8.02;;;4.43;;
62933;SDS011;49038;47.600;19.242;2022-10-19T20:07:25;8.75;;;5.07;;
62933;SDS011;49038;47.600;19.242;2022-10-19T20:10:28;22.95;;;5.07;;
62933;SDS011;49038;47.600;19.242;2022-10-19T20:13:30;10.15;;;4.87;;
62933;SDS011;49038;47.600;19.242;2022-10-19T20:16:33;12.48;;;5.45;;
62933;SDS011;49038;47.600;19.242;2022-10-19T20:19:35;8.90;;;4.57;;
62933;SDS011;49038;47.600;19.242;2022-10-19T20:22:38;7.70;;;4.95;;
62933;SDS011;49038;47.600;19.242;2022-10-19T20:25:40;7.90;;;4.35;;
62933;SDS011;49038;47.600;19.242;2022-10-19T20:28:42;5.62;;;3.53;;
62933;SDS011;49038;47.600;19.242;2022-10-19T20:31:46;5.93;;;4.28;;
62933;SDS011;49038;47.600;19.242;2022-10-19T20:34:50;9.30;;;4.45;;
62933;SDS011;49038;47.600;19.242;2022-10-19T20:37:54;6.60;;;4.30;;
62933;SDS011;49038;47.600;19.242;2022-10-19T20:41:01;4.43;;;3.05;;
62933;SDS011;49038;47.600;19.242;2022-10-19T20:44:09;2.90;;;2.30;;
62933;SDS011;49038;47.600;19.242;2022-10-19T20:47:11;5.20;;;3.08;;
62933;SDS011;49038;47.600;19.242;2022-10-19T20:50:13;7.78;;;3.37;;
62933;SDS011;49038;47.600;19.242;2022-10-19T20:53:20;6.62;;;3.85;;